sensor_id;sensor_type;location;lat;lon;timestamp;P1;durP1;ratioP1;P2;durP2;ratioP2
46751;SDS011;32497;48.936;9.270;2023-03-01T00:02:22;7.07;;;3.00;;
46751;SDS011;32497;48.936;9.270;2023-03-01T00:07:23;5.70;;;3.40;;
46751;SDS011;32497;48.936;9.270;2023-03-01T00:12:26;8.80;;;3.03;;
46751;SDS011;32497;48.936;9.270;2023-03-01T00:17:27;4.50;;;2.13;;
46751;SDS011;32497;48.936;9.270;2023-03-01T00:22:28;5.33;;;2.90;;
46751;SDS011;32497;48.936;9.270;2023-03-01T00:27:30;6.13;;;3.07;;
46751;SDS011;32497;48.936;9.270;2023-03-01T00:32:32;6.40;;;2.13;;
46751;SDS011;32497;48.936;9.270;2023-03-01T00:37:33;5.70;;;2.50;;
46751;SDS011;32497;48.936;9.270;2023-03-01T00:42:35;6.30;;;3.70;;
46751;SDS011;32497;48.936;9.270;2023-03-01T00:47:36;8.73;;;2.57;;
46751;SDS011;32497;48.936;9.270;2023-03-01T00:52:37;8.17;;;3.00;;
46751;SDS011;32497;48.936;9.270;2023-03-01T00:57:40;8.40;;;2.57;;
46751;SDS011;32497;48.936;9.270;2023-03-01T01:02:41;4.57;;;2.40;;
46751;SDS011;32497;48.936;9.270;2023-03-01T01:07:42;3.37;;;1.80;;
46751;SDS011;32497;48.936;9.270;2023-03-01T01:12:45;9.67;;;2.40;;
46751;SDS011;32497;48.936;9.270;2023-03-01T01:17:46;4.70;;;2.03;;
46751;SDS011;32497;48.936;9.270;2023-03-01T01:22:47;5.83;;;2.93;;
46751;SDS011;32497;48.936;9.270;2023-03-01T01:27:50;8.20;;;2.80;;
46751;SDS011;32497;48.936;9.270;2023-03-01T01:32:51;10.13;;;2.77;;
46751;SDS011;32497;48.936;9.270;2023-03-01T01:37:52;7.23;;;3.17;;
46751;SDS011;32497;48.936;9.270;2023-03-01T01:42:55;7.23;;;2.97;;
46751;SDS011;32497;48.936;9.270;2023-03-01T01:47:57;9.67;;;3.13;;
46751;SDS011;32497;48.936;9.270;2023-03-01T01:53:04;5.67;;;2.47;;
46751;SDS011;32497;48.936;9.270;2023-03-01T01:58:11;10.47;;;3.10;;
46751;SDS011;32497;48.936;9.270;2023-03-01T02:03:17;10.03;;;3.83;;
46751;SDS011;32497;48.936;9.270;2023-03-01T02:08:25;7.27;;;3.17;;
46751;SDS011;32497;48.936;9.270;2023-03-01T02:13:31;11.40;;;3.83;;
46751;SDS011;32497;48.936;9.270;2023-03-01T02:18:34;9.37;;;3.73;;
46751;SDS011;32497;48.936;9.270;2023-03-01T02:23:35;9.03;;;4.20;;
46751;SDS011;32497;48.936;9.270;2023-03-01T02:28:38;6.23;;;2.73;;
46751;SDS011;32497;48.936;9.270;2023-03-01T02:33:42;13.43;;;3.57;;
46751;SDS011;32497;48.936;9.270;2023-03-01T02:38:46;7.50;;;3.10;;
46751;SDS011;32497;48.936;9.270;2023-03-01T02:43:49;9.93;;;3.53;;
46751;SDS011;32497;48.936;9.270;2023-03-01T02:48:51;7.67;;;3.40;;
46751;SDS011;32497;48.936;9.270;2023-03-01T02:53:56;11.03;;;5.00;;
46751;SDS011;32497;48.936;9.270;2023-03-01T02:59:09;12.17;;;4.47;;
46751;SDS011;32497;48.936;9.270;2023-03-01T03:09:17;13.27;;;4.27;;
46751;SDS011;32497;48.936;9.270;2023-03-01T03:14:21;7.20;;;2.77;;
46751;SDS011;32497;48.936;9.270;2023-03-01T03:19:23;9.23;;;3.60;;
46751;SDS011;32497;48.936;9.270;2023-03-01T03:24:24;13.87;;;3.90;;
46751;SDS011;32497;48.936;9.270;2023-03-01T03:29:26;7.93;;;3.43;;
46751;SDS011;32497;48.936;9.270;2023-03-01T03:34:27;7.67;;;3.33;;
46751;SDS011;32497;48.936;9.270;2023-03-01T03:39:28;7.07;;;2.80;;
46751;SDS011;32497;48.936;9.270;2023-03-01T03:44:31;11.63;;;4.30;;
46751;SDS011;32497;48.936;9.270;2023-03-01T03:49:32;9.37;;;4.27;;
46751;SDS011;32497;48.936;9.270;2023-03-01T03:54:34;10.20;;;3.83;;
46751;SDS011;32497;48.936;9.270;2023-03-01T03:59:36;9.03;;;3.50;;
46751;SDS011;32497;48.936;9.270;2023-03-01T04:04:37;4.97;;;2.87;;
46751;SDS011;32497;48.936;9.270;2023-03-01T04:09:39;7.07;;;3.70;;
46751;SDS011;32497;48.936;9.270;2023-03-01T04:14:41;8.43;;;3.47;;
46751;SDS011;32497;48.936;9.270;2023-03-01T04:19:42;8.67;;;3.57;;
46751;SDS011;32497;48.936;9.270;2023-03-01T04:24:43;10.87;;;3.87;;
46751;SDS011;32497;48.936;9.270;2023-03-01T04:29:46;9.93;;;3.70;;
46751;SDS011;32497;48.936;9.270;2023-03-01T04:34:47;10.47;;;3.53;;
46751;SDS011;32497;48.936;9.270;2023-03-01T04:39:48;13.27;;;4.20;;
46751;SDS011;32497;48.936;9.270;2023-03-01T04:44:50;7.03;;;3.63;;
46751;SDS011;32497;48.936;9.270;2023-03-01T04:49:51;10.50;;;3.33;;
46751;SDS011;32497;48.936;9.270;2023-03-01T04:54:52;6.73;;;3.20;;
46751;SDS011;32497;48.936;9.270;2023-03-01T04:59:55;9.07;;;4.13;;
46751;SDS011;32497;48.936;9.270;2023-03-01T05:04:56;10.53;;;4.03;;
46751;SDS011;32497;48.936;9.270;2023-03-01T05:09:57;7.67;;;3.27;;
46751;SDS011;32497;48.936;9.270;2023-03-01T05:14:59;9.37;;;3.23;;
46751;SDS011;32497;48.936;9.270;2023-03-01T05:20:01;8.20;;;3.47;;
46751;SDS011;32497;48.936;9.270;2023-03-01T05:25:05;8.30;;;3.57;;
46751;SDS011;32497;48.936;9.270;2023-03-01T05:30:12;6.67;;;3.37;;
46751;SDS011;32497;48.936;9.270;2023-03-01T05:35:15;7.90;;;3.43;;
46751;SDS011;32497;48.936;9.270;2023-03-01T05:40:18;7.93;;;3.57;;
46751;SDS011;32497;48.936;9.270;2023-03-01T05:45:23;9.07;;;4.10;;
46751;SDS011;32497;48.936;9.270;2023-03-01T05:50:25;7.67;;;3.83;;
46751;SDS011;32497;48.936;9.270;2023-03-01T05:55:28;11.27;;;4.17;;
46751;SDS011;32497;48.936;9.270;2023-03-01T06:00:31;21.10;;;3.93;;
46751;SDS011;32497;48.936;9.270;2023-03-01T06:05:33;12.73;;;3.37;;
46751;SDS011;32497;48.936;9.270;2023-03-01T06:10:34;14.97;;;4.40;;
46751;SDS011;32497;48.936;9.270;2023-03-01T06:15:37;10.23;;;3.50;;
46751;SDS011;32497;48.936;9.270;2023-03-01T06:20:38;10.03;;;4.17;;
46751;SDS011;32497;48.936;9.270;2023-03-01T06:25:39;10.03;;;3.60;;
46751;SDS011;32497;48.936;9.270;2023-03-01T06:30:41;9.77;;;4.07;;
46751;SDS011;32497;48.936;9.270;2023-03-01T06:35:43;10.27;;;4.60;;
46751;SDS011;32497;48.936;9.270;2023-03-01T06:40:44;8.80;;;3.03;;
46751;SDS011;32497;48.936;9.270;2023-03-01T06:45:53;9.30;;;4.20;;
46751;SDS011;32497;48.936;9.270;2023-03-01T06:50:54;6.30;;;2.40;;
46751;SDS011;32497;48.936;9.270;2023-03-01T06:55:58;7.50;;;3.10;;
46751;SDS011;32497;48.936;9.270;2023-03-01T07:01:01;9.73;;;3.57;;
46751;SDS011;32497;48.936;9.270;2023-03-01T07:06:06;10.40;;;3.40;;
46751;SDS011;32497;48.936;9.270;2023-03-01T07:11:07;12.80;;;4.27;;
46751;SDS011;32497;48.936;9.270;2023-03-01T07:16:09;10.87;;;3.73;;
46751;SDS011;32497;48.936;9.270;2023-03-01T07:21:11;11.63;;;4.47;;
46751;SDS011;32497;48.936;9.270;2023-03-01T07:26:14;8.93;;;3.83;;
46751;SDS011;32497;48.936;9.270;2023-03-01T07:31:16;6.27;;;3.37;;
46751;SDS011;32497;48.936;9.270;2023-03-01T07:36:17;8.77;;;3.67;;
46751;SDS011;32497;48.936;9.270;2023-03-01T07:41:19;10.83;;;4.77;;
46751;SDS011;32497;48.936;9.270;2023-03-01T07:46:21;12.83;;;4.13;;
46751;SDS011;32497;48.936;9.270;2023-03-01T07:51:22;7.63;;;3.30;;
46751;SDS011;32497;48.936;9.270;2023-03-01T07:56:23;14.00;;;4.50;;
46751;SDS011;32497;48.936;9.270;2023-03-01T08:01:26;13.03;;;4.37;;
46751;SDS011;32497;48.936;9.270;2023-03-01T08:06:27;10.90;;;4.70;;
46751;SDS011;32497;48.936;9.270;2023-03-01T08:11:28;9.60;;;3.60;;
46751;SDS011;32497;48.936;9.270;2023-03-01T08:16:30;11.70;;;3.57;;
46751;SDS011;32497;48.936;9.270;2023-03-01T08:21:32;11.53;;;4.50;;
46751;SDS011;32497;48.936;9.270;2023-03-01T08:26:33;9.27;;;3.93;;
46751;SDS011;32497;48.936;9.270;2023-03-01T08:31:36;11.87;;;4.73;;
46751;SDS011;32497;48.936;9.270;2023-03-01T08:36:40;11.70;;;5.17;;
46751;SDS011;32497;48.936;9.270;2023-03-01T08:41:42;11.57;;;5.10;;
46751;SDS011;32497;48.936;9.270;2023-03-01T08:46:45;10.90;;;4.87;;
46751;SDS011;32497;48.936;9.270;2023-03-01T08:51:47;16.33;;;4.93;;
46751;SDS011;32497;48.936;9.270;2023-03-01T08:56:48;13.43;;;5.57;;
46751;SDS011;32497;48.936;9.270;2023-03-01T09:01:51;14.20;;;4.97;;
46751;SDS011;32497;48.936;9.270;2023-03-01T09:06:52;13.30;;;5.03;;
46751;SDS011;32497;48.936;9.270;2023-03-01T09:11:53;13.23;;;5.00;;
46751;SDS011;32497;48.936;9.270;2023-03-01T09:16:55;18.33;;;4.83;;
46751;SDS011;32497;48.936;9.270;2023-03-01T09:21:57;11.97;;;5.13;;
46751;SDS011;32497;48.936;9.270;2023-03-01T09:26:58;10.60;;;4.70;;
46751;SDS011;32497;48.936;9.270;2023-03-01T09:32:01;12.03;;;5.10;;
46751;SDS011;32497;48.936;9.270;2023-03-01T09:37:02;10.27;;;5.27;;
46751;SDS011;32497;48.936;9.270;2023-03-01T09:42:03;13.83;;;5.37;;
46751;SDS011;32497;48.936;9.270;2023-03-01T09:47:08;9.70;;;4.67;;
46751;SDS011;32497;48.936;9.270;2023-03-01T09:52:15;10.40;;;4.70;;
46751;SDS011;32497;48.936;9.270;2023-03-01T09:57:28;13.27;;;5.67;;
46751;SDS011;32497;48.936;9.270;2023-03-01T10:02:41;14.83;;;5.63;;
46751;SDS011;32497;48.936;9.270;2023-03-01T10:07:46;12.60;;;5.23;;
46751;SDS011;32497;48.936;9.270;2023-03-01T10:12:54;12.40;;;5.53;;
46751;SDS011;32497;48.936;9.270;2023-03-01T10:17:58;17.13;;;5.70;;
46751;SDS011;32497;48.936;9.270;2023-03-01T10:23:03;16.37;;;5.77;;
46751;SDS011;32497;48.936;9.270;2023-03-01T10:28:05;12.97;;;5.77;;
46751;SDS011;32497;48.936;9.270;2023-03-01T10:33:16;13.67;;;5.87;;
46751;SDS011;32497;48.936;9.270;2023-03-01T10:38:20;13.20;;;5.33;;
46751;SDS011;32497;48.936;9.270;2023-03-01T10:43:22;14.20;;;4.87;;
46751;SDS011;32497;48.936;9.270;2023-03-01T10:48:26;12.47;;;5.07;;
46751;SDS011;32497;48.936;9.270;2023-03-01T10:53:28;12.57;;;5.13;;
46751;SDS011;32497;48.936;9.270;2023-03-01T10:58:32;10.30;;;5.30;;
46751;SDS011;32497;48.936;9.270;2023-03-01T11:03:37;12.17;;;5.17;;
46751;SDS011;32497;48.936;9.270;2023-03-01T11:08:40;10.80;;;5.77;;
46751;SDS011;32497;48.936;9.270;2023-03-01T11:13:47;10.73;;;5.00;;
46751;SDS011;32497;48.936;9.270;2023-03-01T11:18:57;11.13;;;4.77;;
46751;SDS011;32497;48.936;9.270;2023-03-01T11:24:00;11.37;;;5.20;;
46751;SDS011;32497;48.936;9.270;2023-03-01T11:29:04;11.03;;;4.73;;
46751;SDS011;32497;48.936;9.270;2023-03-01T11:34:13;10.17;;;4.30;;
46751;SDS011;32497;48.936;9.270;2023-03-01T11:39:23;11.30;;;4.63;;
46751;SDS011;32497;48.936;9.270;2023-03-01T11:44:29;8.53;;;4.50;;
46751;SDS011;32497;48.936;9.270;2023-03-01T11:55:03;13.60;;;4.50;;
46751;SDS011;32497;48.936;9.270;2023-03-01T12:00:23;10.33;;;5.07;;
46751;SDS011;32497;48.936;9.270;2023-03-01T12:05:46;8.43;;;4.80;;
46751;SDS011;32497;48.936;9.270;2023-03-01T12:11:02;8.93;;;4.07;;
46751;SDS011;32497;48.936;9.270;2023-03-01T12:16:23;10.20;;;4.43;;
46751;SDS011;32497;48.936;9.270;2023-03-01T12:21:38;12.00;;;4.93;;
46751;SDS011;32497;48.936;9.270;2023-03-01T12:26:51;8.77;;;4.03;;
46751;SDS011;32497;48.936;9.270;2023-03-01T12:32:22;10.67;;;4.53;;
46751;SDS011;32497;48.936;9.270;2023-03-01T12:37:38;8.20;;;4.60;;
46751;SDS011;32497;48.936;9.270;2023-03-01T12:42:48;9.47;;;4.30;;
46751;SDS011;32497;48.936;9.270;2023-03-01T12:48:03;9.67;;;4.40;;
46751;SDS011;32497;48.936;9.270;2023-03-01T12:53:23;9.07;;;4.97;;
46751;SDS011;32497;48.936;9.270;2023-03-01T12:58:28;10.03;;;4.67;;
46751;SDS011;32497;48.936;9.270;2023-03-01T13:03:36;11.03;;;4.83;;
46751;SDS011;32497;48.936;9.270;2023-03-01T13:08:49;9.50;;;4.60;;
46751;SDS011;32497;48.936;9.270;2023-03-01T13:19:32;10.87;;;5.20;;
46751;SDS011;32497;48.936;9.270;2023-03-01T13:24:35;8.60;;;4.50;;
46751;SDS011;32497;48.936;9.270;2023-03-01T13:29:43;8.67;;;4.70;;
46751;SDS011;32497;48.936;9.270;2023-03-01T13:34:52;10.17;;;5.07;;
46751;SDS011;32497;48.936;9.270;2023-03-01T13:40:00;12.10;;;5.32;;
46751;SDS011;32497;48.936;9.270;2023-03-01T13:45:12;10.77;;;5.00;;
46751;SDS011;32497;48.936;9.270;2023-03-01T13:50:21;7.82;;;4.65;;
46751;SDS011;32497;48.936;9.270;2023-03-01T13:55:27;10.73;;;5.10;;
46751;SDS011;32497;48.936;9.270;2023-03-01T14:00:35;8.20;;;4.50;;
46751;SDS011;32497;48.936;9.270;2023-03-01T14:05:38;12.13;;;5.63;;
46751;SDS011;32497;48.936;9.270;2023-03-01T14:10:43;10.25;;;4.93;;
46751;SDS011;32497;48.936;9.270;2023-03-01T14:15:53;10.65;;;4.68;;
46751;SDS011;32497;48.936;9.270;2023-03-01T14:21:07;11.05;;;4.95;;
46751;SDS011;32497;48.936;9.270;2023-03-01T14:26:10;12.10;;;4.82;;
46751;SDS011;32497;48.936;9.270;2023-03-01T14:31:31;11.77;;;5.17;;
46751;SDS011;32497;48.936;9.270;2023-03-01T14:36:35;11.90;;;5.50;;
46751;SDS011;32497;48.936;9.270;2023-03-01T14:41:37;12.97;;;4.83;;
46751;SDS011;32497;48.936;9.270;2023-03-01T14:46:39;12.70;;;5.07;;
46751;SDS011;32497;48.936;9.270;2023-03-01T14:51:42;10.20;;;4.77;;
46751;SDS011;32497;48.936;9.270;2023-03-01T14:56:51;9.03;;;5.20;;
46751;SDS011;32497;48.936;9.270;2023-03-01T15:01:54;11.77;;;5.20;;
46751;SDS011;32497;48.936;9.270;2023-03-01T15:06:57;11.27;;;5.27;;
46751;SDS011;32497;48.936;9.270;2023-03-01T15:12:00;10.10;;;4.97;;
46751;SDS011;32497;48.936;9.270;2023-03-01T15:17:01;10.47;;;4.23;;
46751;SDS011;32497;48.936;9.270;2023-03-01T15:22:02;11.10;;;4.93;;
46751;SDS011;32497;48.936;9.270;2023-03-01T15:27:04;12.30;;;5.20;;
46751;SDS011;32497;48.936;9.270;2023-03-01T15:32:23;9.47;;;4.70;;
46751;SDS011;32497;48.936;9.270;2023-03-01T15:37:36;10.27;;;4.87;;
46751;SDS011;32497;48.936;9.270;2023-03-01T15:42:47;9.20;;;4.77;;
46751;SDS011;32497;48.936;9.270;2023-03-01T15:47:48;10.17;;;4.80;;
46751;SDS011;32497;48.936;9.270;2023-03-01T15:52:51;12.30;;;4.40;;
46751;SDS011;32497;48.936;9.270;2023-03-01T15:57:59;9.27;;;4.47;;
46751;SDS011;32497;48.936;9.270;2023-03-01T16:03:01;9.33;;;4.30;;
46751;SDS011;32497;48.936;9.270;2023-03-01T16:08:02;9.43;;;4.10;;
46751;SDS011;32497;48.936;9.270;2023-03-01T16:13:06;10.00;;;4.50;;
46751;SDS011;32497;48.936;9.270;2023-03-01T16:18:08;7.83;;;4.37;;
46751;SDS011;32497;48.936;9.270;2023-03-01T16:23:10;8.77;;;4.00;;
46751;SDS011;32497;48.936;9.270;2023-03-01T16:28:13;14.13;;;4.87;;
46751;SDS011;32497;48.936;9.270;2023-03-01T16:33:14;10.80;;;3.70;;
46751;SDS011;32497;48.936;9.270;2023-03-01T16:38:15;10.30;;;4.47;;
46751;SDS011;32497;48.936;9.270;2023-03-01T16:43:18;8.20;;;3.63;;
46751;SDS011;32497;48.936;9.270;2023-03-01T16:48:19;10.30;;;5.03;;
46751;SDS011;32497;48.936;9.270;2023-03-01T16:53:20;9.87;;;4.40;;
46751;SDS011;32497;48.936;9.270;2023-03-01T16:58:22;8.37;;;3.83;;
46751;SDS011;32497;48.936;9.270;2023-03-01T17:03:24;10.27;;;4.70;;
46751;SDS011;32497;48.936;9.270;2023-03-01T17:08:26;10.07;;;4.53;;
46751;SDS011;32497;48.936;9.270;2023-03-01T17:13:28;10.97;;;5.20;;
46751;SDS011;32497;48.936;9.270;2023-03-01T17:18:29;10.37;;;5.23;;
46751;SDS011;32497;48.936;9.270;2023-03-01T17:23:31;12.57;;;5.23;;
46751;SDS011;32497;48.936;9.270;2023-03-01T17:28:34;14.70;;;6.00;;
46751;SDS011;32497;48.936;9.270;2023-03-01T17:33:36;16.87;;;6.13;;
46751;SDS011;32497;48.936;9.270;2023-03-01T17:38:37;14.13;;;5.47;;
46751;SDS011;32497;48.936;9.270;2023-03-01T17:43:40;19.53;;;6.90;;
46751;SDS011;32497;48.936;9.270;2023-03-01T17:48:41;17.20;;;6.23;;
46751;SDS011;32497;48.936;9.270;2023-03-01T17:53:42;17.87;;;6.00;;
46751;SDS011;32497;48.936;9.270;2023-03-01T17:58:45;16.43;;;6.40;;
46751;SDS011;32497;48.936;9.270;2023-03-01T18:03:46;14.67;;;5.90;;
46751;SDS011;32497;48.936;9.270;2023-03-01T18:08:50;14.43;;;5.60;;
46751;SDS011;32497;48.936;9.270;2023-03-01T18:13:53;14.20;;;5.77;;
46751;SDS011;32497;48.936;9.270;2023-03-01T18:18:55;16.43;;;6.30;;
46751;SDS011;32497;48.936;9.270;2023-03-01T18:24:00;20.13;;;6.23;;
46751;SDS011;32497;48.936;9.270;2023-03-01T18:29:02;15.53;;;5.83;;
46751;SDS011;32497;48.936;9.270;2023-03-01T18:34:04;18.10;;;7.10;;
46751;SDS011;32497;48.936;9.270;2023-03-01T18:39:05;16.90;;;6.97;;
46751;SDS011;32497;48.936;9.270;2023-03-01T18:44:08;16.83;;;6.87;;
46751;SDS011;32497;48.936;9.270;2023-03-01T18:49:10;17.33;;;6.23;;
46751;SDS011;32497;48.936;9.270;2023-03-01T18:54:12;15.47;;;7.20;;
46751;SDS011;32497;48.936;9.270;2023-03-01T18:59:14;11.67;;;4.93;;
46751;SDS011;32497;48.936;9.270;2023-03-01T19:04:15;9.23;;;4.53;;
46751;SDS011;32497;48.936;9.270;2023-03-01T19:09:17;12.03;;;4.97;;
46751;SDS011;32497;48.936;9.270;2023-03-01T19:14:19;12.00;;;4.90;;
46751;SDS011;32497;48.936;9.270;2023-03-01T19:19:20;11.03;;;4.87;;
46751;SDS011;32497;48.936;9.270;2023-03-01T19:24:21;12.20;;;5.10;;
46751;SDS011;32497;48.936;9.270;2023-03-01T19:29:24;13.00;;;5.70;;
46751;SDS011;32497;48.936;9.270;2023-03-01T19:34:25;17.67;;;6.13;;
46751;SDS011;32497;48.936;9.270;2023-03-01T19:39:26;13.53;;;6.00;;
46751;SDS011;32497;48.936;9.270;2023-03-01T19:44:29;10.47;;;5.47;;
46751;SDS011;32497;48.936;9.270;2023-03-01T19:49:30;12.53;;;5.37;;
46751;SDS011;32497;48.936;9.270;2023-03-01T19:54:31;13.07;;;5.37;;
46751;SDS011;32497;48.936;9.270;2023-03-01T19:59:34;10.23;;;4.33;;
46751;SDS011;32497;48.936;9.270;2023-03-01T20:04:35;13.03;;;4.83;;
46751;SDS011;32497;48.936;9.270;2023-03-01T20:09:36;13.77;;;5.80;;
46751;SDS011;32497;48.936;9.270;2023-03-01T20:14:38;10.60;;;5.50;;
46751;SDS011;32497;48.936;9.270;2023-03-01T20:19:40;15.13;;;4.13;;
46751;SDS011;32497;48.936;9.270;2023-03-01T20:24:41;13.57;;;5.10;;
46751;SDS011;32497;48.936;9.270;2023-03-01T20:29:43;14.63;;;6.10;;
46751;SDS011;32497;48.936;9.270;2023-03-01T20:34:44;10.13;;;4.63;;
46751;SDS011;32497;48.936;9.270;2023-03-01T20:39:45;14.70;;;5.63;;
46751;SDS011;32497;48.936;9.270;2023-03-01T20:44:48;11.83;;;6.30;;
46751;SDS011;32497;48.936;9.270;2023-03-01T20:49:49;11.50;;;4.57;;
46751;SDS011;32497;48.936;9.270;2023-03-01T20:54:50;10.40;;;5.40;;
46751;SDS011;32497;48.936;9.270;2023-03-01T20:59:53;15.13;;;5.30;;
46751;SDS011;32497;48.936;9.270;2023-03-01T21:04:54;14.03;;;5.97;;
46751;SDS011;32497;48.936;9.270;2023-03-01T21:09:55;15.13;;;5.83;;
46751;SDS011;32497;48.936;9.270;2023-03-01T21:14:58;13.77;;;6.30;;
46751;SDS011;32497;48.936;9.270;2023-03-01T21:19:59;17.37;;;6.13;;
46751;SDS011;32497;48.936;9.270;2023-03-01T21:25:00;13.87;;;5.43;;
46751;SDS011;32497;48.936;9.270;2023-03-01T21:30:02;11.40;;;5.30;;
46751;SDS011;32497;48.936;9.270;2023-03-01T21:35:05;17.03;;;4.77;;
46751;SDS011;32497;48.936;9.270;2023-03-01T21:40:06;9.60;;;4.50;;
46751;SDS011;32497;48.936;9.270;2023-03-01T21:45:10;10.73;;;4.53;;
46751;SDS011;32497;48.936;9.270;2023-03-01T21:50:11;12.77;;;4.97;;
46751;SDS011;32497;48.936;9.270;2023-03-01T21:55:12;13.40;;;5.40;;
46751;SDS011;32497;48.936;9.270;2023-03-01T22:00:15;11.87;;;5.33;;
46751;SDS011;32497;48.936;9.270;2023-03-01T22:05:17;15.07;;;5.73;;
46751;SDS011;32497;48.936;9.270;2023-03-01T22:10:18;13.70;;;5.50;;
46751;SDS011;32497;48.936;9.270;2023-03-01T22:15:21;14.77;;;5.40;;
46751;SDS011;32497;48.936;9.270;2023-03-01T22:20:23;11.13;;;4.43;;
46751;SDS011;32497;48.936;9.270;2023-03-01T22:25:24;13.17;;;4.50;;
46751;SDS011;32497;48.936;9.270;2023-03-01T22:30:26;13.67;;;5.30;;
46751;SDS011;32497;48.936;9.270;2023-03-01T22:35:27;9.80;;;4.63;;
46751;SDS011;32497;48.936;9.270;2023-03-01T22:40:29;12.07;;;4.87;;
46751;SDS011;32497;48.936;9.270;2023-03-01T22:45:31;17.00;;;6.00;;
46751;SDS011;32497;48.936;9.270;2023-03-01T22:50:32;13.23;;;4.70;;
46751;SDS011;32497;48.936;9.270;2023-03-01T22:55:33;12.13;;;4.60;;
46751;SDS011;32497;48.936;9.270;2023-03-01T23:00:36;12.00;;;5.17;;
46751;SDS011;32497;48.936;9.270;2023-03-01T23:05:37;9.80;;;4.27;;
46751;SDS011;32497;48.936;9.270;2023-03-01T23:10:39;13.23;;;5.07;;
46751;SDS011;32497;48.936;9.270;2023-03-01T23:15:41;13.77;;;5.60;;
46751;SDS011;32497;48.936;9.270;2023-03-01T23:20:43;12.80;;;5.60;;
46751;SDS011;32497;48.936;9.270;2023-03-01T23:25:51;13.07;;;5.30;;
46751;SDS011;32497;48.936;9.270;2023-03-01T23:30:55;13.63;;;6.37;;
46751;SDS011;32497;48.936;9.270;2023-03-01T23:35:58;18.70;;;5.40;;
46751;SDS011;32497;48.936;9.270;2023-03-01T23:40:59;12.60;;;4.83;;
46751;SDS011;32497;48.936;9.270;2023-03-01T23:46:02;13.90;;;6.07;;
46751;SDS011;32497;48.936;9.270;2023-03-01T23:51:03;11.70;;;5.00;;
46751;SDS011;32497;48.936;9.270;2023-03-01T23:56:05;14.57;;;5.70;;
